Time;durP1;ratioP1;P1;durP2;ratioP2;P2;SDS_P1;SDS_P2;PMS_P1;PMS_P2;Temp;Humidity;BMP_temperature;BMP_pressure;BME280_temperature;BME280_humidity;BME280_pressure;Samples;Min_cycle;Max_cycle;Signal;HPM_P1;HPM_P2
2022/07/15 00:08:13;;;;;;;10.68;5.95;;;32.80;15.40;;;;;;21248843;27;20050;-55
2022/07/15 00:18:15;;;;;;;13.45;7.72;;;32.60;15.40;;;;;;21248740;27;20050;-57
2022/07/15 00:28:17;;;;;;;8.30;6.72;;;32.50;15.40;;;;;;21248988;27;20461;-57
2022/07/15 00:38:18;;;;;;;12.45;6.70;;;32.40;15.50;;;;;;21248351;27;20385;-55
2022/07/15 00:48:20;;;;;;;10.55;6.38;;;32.20;15.40;;;;;;21250788;27;20043;-58
2022/07/15 00:58:23;;;;;;;12.35;7.18;;;32.10;15.60;;;;;;21265275;27;20058;-56
2022/07/15 01:08:26;;;;;;;9.80;6.35;;;31.90;15.60;;;;;;21263884;27;20419;-57
2022/07/15 01:18:28;;;;;;;12.57;7.55;;;31.80;15.90;;;;;;21263781;27;20055;-56
2022/07/15 01:28:31;;;;;;;10.68;6.38;;;31.60;16.00;;;;;;21262401;27;20096;-58
2022/07/15 01:38:35;;;;;;;7.28;6.50;;;31.50;16.20;;;;;;21261370;27;20104;-55
2022/07/15 01:59:04;;;;;;;10.68;6.55;;;31.30;16.60;;;;;;21259931;27;20536;-56
2022/07/15 02:09:10;;;;;;;12.23;7.03;;;31.20;16.80;;;;;;21258783;27;20437;-55
2022/07/15 02:19:29;;;;;;;11.17;6.67;;;31.10;17.00;;;;;;21258512;27;20126;-56
2022/07/15 02:29:33;;;;;;;10.77;7.03;;;31.00;17.50;;;;;;21257858;27;20050;-55
2022/07/15 02:39:38;;;;;;;11.40;8.70;;;30.90;17.40;;;;;;21256712;27;20043;-57
2022/07/15 02:49:40;;;;;;;10.00;7.47;;;30.70;17.70;;;;;;21257513;27;20122;-56
2022/07/15 02:59:42;;;;;;;8.18;7.38;;;30.60;18.40;;;;;;21255496;27;20416;-58
2022/07/15 03:09:44;;;;;;;10.77;7.28;;;30.60;19.40;;;;;;21254160;27;20058;-57
2022/07/15 03:19:49;;;;;;;12.10;6.70;;;30.50;19.50;;;;;;21254828;27;20047;-57
2022/07/15 03:29:51;;;;;;;10.52;7.22;;;30.30;19.90;;;;;;21252417;27;20039;-56
2022/07/15 03:39:54;;;;;;;10.65;7.10;;;30.00;20.80;;;;;;21252060;27;20051;-56
2022/07/15 03:49:55;;;;;;;13.48;7.65;;;29.70;21.00;;;;;;21233386;27;20043;-56
2022/07/15 03:59:57;;;;;;;10.27;7.45;;;29.60;21.00;;;;;;21250656;27;20513;-58
2022/07/15 04:09:59;;;;;;;10.13;7.30;;;29.40;21.40;;;;;;21249516;27;20165;-56
2022/07/15 04:20:01;;;;;;;10.65;8.18;;;29.10;21.70;;;;;;21248842;27;20105;-57
2022/07/15 04:30:05;;;;;;;13.88;8.05;;;29.00;22.10;;;;;;21247677;27;20081;-57
2022/07/15 04:40:09;;;;;;;15.27;8.95;;;28.90;22.20;;;;;;21247776;27;20107;-56
2022/07/15 05:00:33;;;;;;;13.47;10.60;;;28.60;23.20;;;;;;21247203;28;20099;-58
2022/07/15 05:10:35;;;;;;;13.65;11.68;;;28.50;23.70;;;;;;21245980;28;20058;-59
2022/07/15 05:20:38;;;;;;;16.30;12.15;;;28.40;24.40;;;;;;21246606;28;20068;-56
2022/07/15 05:30:40;;;;;;;17.63;12.82;;;28.30;24.50;;;;;;21246564;28;20039;-58
2022/07/15 05:40:42;;;;;;;18.65;14.15;;;28.40;24.70;;;;;;21259095;27;20184;-57
2022/07/15 05:50:43;;;;;;;19.63;13.43;;;28.40;25.20;;;;;;21261613;27;20047;-57
2022/07/15 06:00:45;;;;;;;19.88;13.85;;;28.60;25.30;;;;;;21259743;27;20091;-57
2022/07/15 06:10:47;;;;;;;18.77;14.02;;;28.60;24.90;;;;;;21259621;27;20142;-58
2022/07/15 06:20:49;;;;;;;16.67;13.60;;;28.80;25.10;;;;;;21258681;27;20130;-59
2022/07/15 06:30:51;;;;;;;16.65;13.35;;;28.90;25.20;;;;;;21257976;27;20053;-59
2022/07/15 06:40:52;;;;;;;22.70;13.65;;;29.10;25.50;;;;;;21256899;27;20047;-57
2022/07/15 06:50:54;;;;;;;15.55;12.68;;;29.20;25.20;;;;;;21255986;27;20050;-59
2022/07/15 07:00:56;;;;;;;15.02;11.98;;;29.30;24.60;;;;;;21255370;27;20047;-58
2022/07/15 07:10:57;;;;;;;15.02;12.90;;;29.60;24.60;;;;;;21252820;27;20051;-58
2022/07/15 07:20:59;;;;;;;13.52;11.30;;;30.20;24.20;;;;;;21253606;27;20059;-57
2022/07/15 07:31:01;;;;;;;15.38;11.35;;;30.70;23.70;;;;;;21252729;27;20047;-55
2022/07/15 07:41:03;;;;;;;11.82;10.45;;;31.30;23.40;;;;;;21251180;27;20051;-56
2022/07/15 07:51:06;;;;;;;12.43;9.88;;;31.50;23.50;;;;;;21251377;27;20392;-55
2022/07/15 08:01:09;;;;;;;16.88;10.27;;;31.90;23.60;;;;;;21249711;27;20411;-60
2022/07/15 08:11:12;;;;;;;14.05;9.63;;;32.20;23.20;;;;;;21248599;27;20118;-56
2022/07/15 08:21:15;;;;;;;14.50;9.65;;;32.40;23.60;;;;;;21248740;27;20051;-57
2022/07/15 08:31:16;;;;;;;13.35;9.15;;;32.60;23.60;;;;;;21247641;27;20051;-56
2022/07/15 08:41:19;;;;;;;11.65;8.60;;;32.70;24.20;;;;;;21248723;27;20047;-58
2022/07/15 08:51:24;;;;;;;10.38;8.95;;;33.10;23.60;;;;;;21248094;28;20043;-56
2022/07/15 09:01:26;;;;;;;11.30;9.57;;;33.20;23.20;;;;;;21246920;28;20487;-56
2022/07/15 09:11:29;;;;;;;11.45;8.70;;;33.50;22.80;;;;;;21253249;27;20153;-56
2022/07/15 09:21:30;;;;;;;9.90;8.90;;;33.70;22.70;;;;;;21245089;27;20410;-54
2022/07/15 09:42:06;;;;;;;8.07;6.68;;;34.40;22.40;;;;;;21261268;27;20354;-55
2022/07/15 09:52:10;;;;;;;7.43;5.80;;;34.80;22.30;;;;;;21260443;27;20133;-56
2022/07/15 10:02:14;;;;;;;8.45;5.70;;;35.00;22.20;;;;;;21251744;27;20134;-58
2022/07/15 10:12:21;;;;;;;9.18;5.53;;;35.10;22.10;;;;;;21258268;27;20073;-56
2022/07/15 10:22:34;;;;;;;11.52;5.68;;;35.40;21.60;;;;;;21237778;27;20415;-57
2022/07/15 10:33:10;;;;;;;9.88;5.50;;;35.60;21.40;;;;;;21258383;27;20047;-56
2022/07/15 10:43:16;;;;;;;10.05;5.75;;;35.80;21.40;;;;;;21257440;27;20077;-56
2022/07/15 10:53:22;;;;;;;8.13;5.63;;;35.90;21.40;;;;;;21256102;27;20108;-55
2022/07/15 11:03:23;;;;;;;6.38;5.20;;;36.20;20.80;;;;;;21236644;27;20043;-55
2022/07/15 11:13:34;;;;;;;8.55;4.22;;;36.50;20.50;;;;;;21253681;27;20399;-55
2022/07/15 11:23:36;;;;;;;6.07;3.92;;;36.40;20.50;;;;;;21253304;27;20047;-56
2022/07/15 11:33:39;;;;;;;7.40;4.32;;;36.50;20.50;;;;;;21253019;27;20130;-55
2022/07/15 11:54:02;;;;;;;6.78;4.35;;;36.80;20.00;;;;;;21251172;27;20050;-58
2022/07/15 12:04:04;;;;;;;10.95;5.15;;;37.00;20.00;;;;;;21250193;27;20047;-56
2022/07/15 12:14:10;;;;;;;6.47;3.78;;;37.10;19.60;;;;;;21251012;27;20106;-57
2022/07/15 12:24:40;;;;;;;8.63;4.13;;;37.50;19.00;;;;;;21248438;27;20047;-56
2022/07/15 12:34:54;;;;;;;9.95;4.18;;;37.50;18.70;;;;;;21249653;27;20047;-60
2022/07/15 12:45:11;;;;;;;8.00;3.95;;;37.50;17.90;;;;;;21247035;27;20163;-60
2022/07/15 12:55:16;;;;;;;6.57;3.93;;;37.80;18.30;;;;;;21248062;28;20043;-58
2022/07/15 13:05:18;;;;;;;7.47;4.70;;;38.00;18.10;;;;;;21245974;28;20066;-61
2022/07/15 13:15:20;;;;;;;4.78;3.92;;;38.00;17.30;;;;;;21246934;28;20440;-56
2022/07/15 13:25:22;;;;;;;8.55;4.35;;;38.10;17.50;;;;;;21246359;28;20050;-60
2022/07/15 13:35:25;;;;;;;10.50;4.13;;;38.10;17.40;;;;;;21247250;28;20075;-57
2022/07/15 13:45:29;;;;;;;9.85;3.85;;;38.20;17.50;;;;;;21246938;28;20102;-59
2022/07/15 13:55:31;;;;;;;7.00;4.15;;;38.10;17.60;;;;;;21248828;27;20040;-57
2022/07/15 14:05:33;;;;;;;7.78;4.00;;;38.20;17.40;;;;;;21259297;27;20054;-58
2022/07/15 14:15:35;;;;;;;8.25;3.70;;;38.30;16.60;;;;;;21259530;27;20075;-58
2022/07/15 14:25:38;;;;;;;7.47;3.50;;;38.30;16.90;;;;;;21258848;27;20456;-58
2022/07/15 14:35:39;;;;;;;6.35;3.33;;;38.50;16.10;;;;;;21258391;27;20122;-57
2022/07/15 14:45:41;;;;;;;5.95;3.00;;;38.40;16.10;;;;;;21257344;27;20051;-59
2022/07/15 14:55:42;;;;;;;8.32;3.70;;;38.60;16.10;;;;;;21256355;27;20051;-59
2022/07/15 15:05:44;;;;;;;5.53;3.50;;;38.60;15.90;;;;;;21254176;27;20165;-60
2022/07/15 15:15:46;;;;;;;7.95;3.40;;;38.60;15.40;;;;;;21254839;27;20039;-59
2022/07/15 15:36:07;;;;;;;5.72;3.30;;;38.80;15.40;;;;;;21252181;27;20055;-59
2022/07/15 15:46:10;;;;;;;4.97;3.00;;;38.60;15.40;;;;;;21251302;27;20051;-53
2022/07/15 15:56:12;;;;;;;3.72;2.90;;;38.70;14.70;;;;;;21251556;27;20539;-54
2022/07/15 16:06:15;;;;;;;5.32;2.70;;;38.80;14.10;;;;;;21249137;27;20055;-54
2022/07/15 16:16:17;;;;;;;6.13;3.30;;;38.80;13.90;;;;;;21246747;27;20162;-56
2022/07/15 16:26:19;;;;;;;6.13;2.90;;;39.00;13.90;;;;;;21247931;27;20083;-58
2022/07/15 16:36:20;;;;;;;6.07;3.28;;;38.80;14.30;;;;;;21248664;27;20074;-57
2022/07/15 16:46:23;;;;;;;6.07;3.22;;;38.70;13.80;;;;;;21248061;27;20099;-53
2022/07/15 16:56:24;;;;;;;5.80;2.85;;;38.70;13.70;;;;;;21247318;28;20078;-57
2022/07/15 17:06:26;;;;;;;10.23;3.20;;;38.70;13.70;;;;;;21246578;28;20445;-54
2022/07/15 17:16:28;;;;;;;6.70;3.35;;;38.70;13.70;;;;;;21246153;28;20130;-59
2022/07/15 17:26:31;;;;;;;5.82;2.80;;;38.60;13.30;;;;;;21246680;28;20051;-58
2022/07/15 17:36:33;;;;;;;5.35;3.13;;;38.50;13.80;;;;;;21258643;27;20181;-56
2022/07/15 17:46:36;;;;;;;9.93;3.90;;;38.60;13.80;;;;;;21259966;27;20503;-58
2022/07/15 17:56:38;;;;;;;7.05;3.50;;;38.50;14.10;;;;;;21259489;27;20050;-60
2022/07/15 18:06:40;;;;;;;6.03;3.10;;;38.50;13.80;;;;;;21259547;27;20597;-57
2022/07/15 18:16:42;;;;;;;5.22;3.40;;;38.40;13.50;;;;;;21257787;27;20054;-57
2022/07/15 18:26:44;;;;;;;9.50;3.67;;;38.30;13.50;;;;;;21257967;27;20099;-57
2022/07/15 18:36:45;;;;;;;6.85;3.33;;;38.10;13.70;;;;;;21257042;27;20054;-58
2022/07/15 18:46:47;;;;;;;10.93;3.65;;;38.00;13.90;;;;;;21255753;27;20062;-56
2022/07/15 18:56:49;;;;;;;9.77;4.70;;;37.80;14.00;;;;;;21255672;27;20103;-57
2022/07/15 19:06:51;;;;;;;15.43;4.65;;;37.60;14.30;;;;;;21255982;27;20043;-57
2022/07/15 19:16:52;;;;;;;8.57;5.07;;;37.50;14.50;;;;;;21254295;27;20039;-56
2022/07/15 19:26:54;;;;;;;9.57;6.47;;;37.30;14.80;;;;;;21253639;27;20047;-57
2022/07/15 19:36:56;;;;;;;10.38;6.35;;;37.10;15.10;;;;;;21252861;27;20441;-58
2022/07/15 19:46:57;;;;;;;9.10;5.80;;;37.00;15.10;;;;;;21252026;27;20483;-57
2022/07/15 19:56:59;;;;;;;12.55;5.53;;;36.70;15.50;;;;;;21250728;27;20055;-59
2022/07/15 20:07:00;;;;;;;9.30;5.40;;;36.50;15.50;;;;;;21249962;27;20051;-57
2022/07/15 20:17:02;;;;;;;12.82;6.40;;;36.30;15.50;;;;;;21250721;27;20043;-58
2022/07/15 20:27:04;;;;;;;12.05;7.28;;;36.10;15.90;;;;;;21250805;27;20539;-59
2022/07/15 20:37:07;;;;;;;17.52;8.48;;;36.00;16.50;;;;;;21248734;27;20043;-57
2022/07/15 20:47:09;;;;;;;16.45;7.78;;;35.70;16.30;;;;;;21248462;27;20512;-57
2022/07/15 20:57:10;;;;;;;20.58;8.13;;;35.60;16.50;;;;;;21248272;28;20047;-55
2022/07/15 21:07:13;;;;;;;16.83;6.80;;;35.40;16.60;;;;;;21253549;27;20051;-58
2022/07/15 21:17:14;;;;;;;15.45;6.22;;;35.10;17.00;;;;;;21263568;27;20047;-58
2022/07/15 21:27:16;;;;;;;8.27;5.43;;;35.10;16.80;;;;;;21244576;27;20048;-55
2022/07/15 21:37:18;;;;;;;12.55;5.40;;;35.00;17.00;;;;;;21262346;27;20054;-58
2022/07/15 21:47:19;;;;;;;12.10;5.10;;;34.80;17.40;;;;;;21262391;27;20078;-55
2022/07/15 21:57:22;;;;;;;9.63;5.20;;;34.60;17.50;;;;;;21261952;27;20047;-55
2022/07/15 22:07:24;;;;;;;11.73;5.95;;;34.50;17.80;;;;;;21260952;27;20182;-55
2022/07/15 22:17:25;;;;;;;11.32;5.75;;;34.40;17.90;;;;;;21258760;27;20131;-56
2022/07/15 22:27:27;;;;;;;10.90;6.45;;;34.20;18.40;;;;;;21258269;27;20073;-57
2022/07/15 22:37:29;;;;;;;12.02;6.15;;;34.10;18.50;;;;;;21257924;27;20495;-56
2022/07/15 22:47:31;;;;;;;9.32;6.07;;;34.00;18.70;;;;;;21256824;27;20043;-55
2022/07/15 22:57:33;;;;;;;12.40;5.28;;;33.80;19.10;;;;;;21256756;27;20055;-56
2022/07/15 23:07:35;;;;;;;20.83;6.18;;;33.60;19.50;;;;;;21255396;27;20054;-58
2022/07/15 23:17:36;;;;;;;14.40;4.65;;;33.60;19.60;;;;;;21254436;27;20043;-56
2022/07/15 23:27:38;;;;;;;16.48;4.70;;;33.40;21.20;;;;;;21253177;27;20047;-55
2022/07/15 23:37:39;;;;;;;11.70;5.15;;;33.10;22.20;;;;;;21253152;27;20055;-54
2022/07/15 23:47:41;;;;;;;11.77;4.88;;;33.00;22.70;;;;;;21253355;27;20126;-56
2022/07/15 23:57:43;;;;;;;14.65;4.72;;;32.90;22.90;;;;;;21232708;27;20047;-57
